sensor_id;sensor_type;location;lat;lon;timestamp;temperature;humidity
10451;DHT22;5273;51.290;6.918;2023-09-18T00:01:21;22.20;99.90
10451;DHT22;5273;51.290;6.918;2023-09-18T00:03:48;22.30;99.90
10451;DHT22;5273;51.290;6.918;2023-09-18T00:06:15;22.30;99.90
10451;DHT22;5273;51.290;6.918;2023-09-18T00:08:41;22.40;99.90
10451;DHT22;5273;51.290;6.918;2023-09-18T00:11:08;22.30;99.90
10451;DHT22;5273;51.290;6.918;2023-09-18T00:13:37;22.30;99.90
10451;DHT22;5273;51.290;6.918;2023-09-18T00:16:05;22.30;99.90
10451;DHT22;5273;51.290;6.918;2023-09-18T00:18:32;22.30;99.90
10451;DHT22;5273;51.290;6.918;2023-09-18T00:20:59;22.30;99.90
10451;DHT22;5273;51.290;6.918;2023-09-18T00:23:26;22.30;99.90
10451;DHT22;5273;51.290;6.918;2023-09-18T00:25:52;22.30;99.90
10451;DHT22;5273;51.290;6.918;2023-09-18T00:28:19;22.10;99.90
10451;DHT22;5273;51.290;6.918;2023-09-18T00:30:48;22.30;99.90
10451;DHT22;5273;51.290;6.918;2023-09-18T00:33:17;22.30;99.90
10451;DHT22;5273;51.290;6.918;2023-09-18T00:35:46;22.20;99.90
10451;DHT22;5273;51.290;6.918;2023-09-18T00:38:13;22.20;99.90
10451;DHT22;5273;51.290;6.918;2023-09-18T00:40:40;22.30;99.90
10451;DHT22;5273;51.290;6.918;2023-09-18T00:43:07;22.20;99.90
10451;DHT22;5273;51.290;6.918;2023-09-18T00:45:36;22.20;99.90
10451;DHT22;5273;51.290;6.918;2023-09-18T00:48:04;22.10;99.90
10451;DHT22;5273;51.290;6.918;2023-09-18T00:50:33;22.10;99.90
10451;DHT22;5273;51.290;6.918;2023-09-18T00:53:00;22.10;99.90
10451;DHT22;5273;51.290;6.918;2023-09-18T00:55:28;22.10;99.90
10451;DHT22;5273;51.290;6.918;2023-09-18T00:57:55;22.00;99.90
10451;DHT22;5273;51.290;6.918;2023-09-18T01:00:21;22.00;99.90
10451;DHT22;5273;51.290;6.918;2023-09-18T01:02:48;22.10;99.90
10451;DHT22;5273;51.290;6.918;2023-09-18T01:05:15;22.10;99.90
10451;DHT22;5273;51.290;6.918;2023-09-18T01:07:44;22.10;99.90
10451;DHT22;5273;51.290;6.918;2023-09-18T01:10:11;22.10;99.90
10451;DHT22;5273;51.290;6.918;2023-09-18T01:12:45;22.10;99.90
10451;DHT22;5273;51.290;6.918;2023-09-18T01:15:17;22.10;99.90
10451;DHT22;5273;51.290;6.918;2023-09-18T01:17:45;22.10;99.90
10451;DHT22;5273;51.290;6.918;2023-09-18T01:20:12;22.10;99.90
10451;DHT22;5273;51.290;6.918;2023-09-18T01:22:41;22.10;99.90
10451;DHT22;5273;51.290;6.918;2023-09-18T01:25:09;22.10;99.90
10451;DHT22;5273;51.290;6.918;2023-09-18T01:27:35;22.10;99.90
10451;DHT22;5273;51.290;6.918;2023-09-18T01:30:03;22.00;99.90
10451;DHT22;5273;51.290;6.918;2023-09-18T01:32:31;21.90;99.90
10451;DHT22;5273;51.290;6.918;2023-09-18T01:35:01;21.90;99.90
10451;DHT22;5273;51.290;6.918;2023-09-18T01:37:30;21.80;99.90
10451;DHT22;5273;51.290;6.918;2023-09-18T01:39:59;21.80;99.90
10451;DHT22;5273;51.290;6.918;2023-09-18T01:42:26;22.00;99.90
10451;DHT22;5273;51.290;6.918;2023-09-18T01:44:54;21.70;99.90
10451;DHT22;5273;51.290;6.918;2023-09-18T01:47:22;21.70;99.90
10451;DHT22;5273;51.290;6.918;2023-09-18T01:49:52;21.80;99.90
10451;DHT22;5273;51.290;6.918;2023-09-18T01:52:19;21.70;99.90
10451;DHT22;5273;51.290;6.918;2023-09-18T01:54:46;21.70;99.90
10451;DHT22;5273;51.290;6.918;2023-09-18T01:57:14;21.70;99.90
10451;DHT22;5273;51.290;6.918;2023-09-18T01:59:41;21.60;99.90
10451;DHT22;5273;51.290;6.918;2023-09-18T02:02:09;21.70;99.90
10451;DHT22;5273;51.290;6.918;2023-09-18T02:04:37;21.70;99.90
10451;DHT22;5273;51.290;6.918;2023-09-18T02:07:05;21.80;99.90
10451;DHT22;5273;51.290;6.918;2023-09-18T02:09:33;21.80;99.90
10451;DHT22;5273;51.290;6.918;2023-09-18T02:11:59;21.80;99.90
10451;DHT22;5273;51.290;6.918;2023-09-18T02:14:28;21.80;99.90
10451;DHT22;5273;51.290;6.918;2023-09-18T02:16:57;21.80;99.90
10451;DHT22;5273;51.290;6.918;2023-09-18T02:19:23;21.70;99.90
10451;DHT22;5273;51.290;6.918;2023-09-18T02:21:51;21.80;99.90
10451;DHT22;5273;51.290;6.918;2023-09-18T02:24:18;21.80;99.90
10451;DHT22;5273;51.290;6.918;2023-09-18T02:26:45;21.80;99.90
10451;DHT22;5273;51.290;6.918;2023-09-18T02:29:12;21.80;99.90
10451;DHT22;5273;51.290;6.918;2023-09-18T02:31:41;21.90;99.90
10451;DHT22;5273;51.290;6.918;2023-09-18T02:34:09;21.80;99.90
10451;DHT22;5273;51.290;6.918;2023-09-18T02:36:35;21.80;99.90
10451;DHT22;5273;51.290;6.918;2023-09-18T02:39:02;21.70;99.90
10451;DHT22;5273;51.290;6.918;2023-09-18T02:41:29;21.90;99.90
10451;DHT22;5273;51.290;6.918;2023-09-18T02:43:56;21.80;99.90
10451;DHT22;5273;51.290;6.918;2023-09-18T02:46:23;21.90;99.90
10451;DHT22;5273;51.290;6.918;2023-09-18T02:48:51;21.90;99.90
10451;DHT22;5273;51.290;6.918;2023-09-18T02:51:19;21.90;99.90
10451;DHT22;5273;51.290;6.918;2023-09-18T02:53:46;21.90;99.90
10451;DHT22;5273;51.290;6.918;2023-09-18T02:56:13;21.90;99.90
10451;DHT22;5273;51.290;6.918;2023-09-18T02:58:40;21.90;99.90
10451;DHT22;5273;51.290;6.918;2023-09-18T03:01:07;22.00;99.90
10451;DHT22;5273;51.290;6.918;2023-09-18T03:03:34;22.10;99.90
10451;DHT22;5273;51.290;6.918;2023-09-18T03:06:03;22.00;99.90
10451;DHT22;5273;51.290;6.918;2023-09-18T03:08:32;21.90;99.90
10451;DHT22;5273;51.290;6.918;2023-09-18T03:10:59;21.80;99.90
10451;DHT22;5273;51.290;6.918;2023-09-18T03:13:27;21.60;99.90
10451;DHT22;5273;51.290;6.918;2023-09-18T03:15:54;21.60;99.90
10451;DHT22;5273;51.290;6.918;2023-09-18T03:18:21;21.60;99.90
10451;DHT22;5273;51.290;6.918;2023-09-18T03:20:48;21.40;99.90
10451;DHT22;5273;51.290;6.918;2023-09-18T03:23:17;21.50;99.90
10451;DHT22;5273;51.290;6.918;2023-09-18T03:25:44;21.40;99.90
10451;DHT22;5273;51.290;6.918;2023-09-18T03:28:11;21.40;99.90
10451;DHT22;5273;51.290;6.918;2023-09-18T03:30:38;21.30;99.90
10451;DHT22;5273;51.290;6.918;2023-09-18T03:33:04;21.30;99.90
10451;DHT22;5273;51.290;6.918;2023-09-18T03:35:32;21.20;99.90
10451;DHT22;5273;51.290;6.918;2023-09-18T03:37:58;21.30;99.90
10451;DHT22;5273;51.290;6.918;2023-09-18T03:40:28;21.10;99.90
10451;DHT22;5273;51.290;6.918;2023-09-18T03:42:54;21.20;99.90
10451;DHT22;5273;51.290;6.918;2023-09-18T03:45:21;21.10;99.90
10451;DHT22;5273;51.290;6.918;2023-09-18T03:47:48;21.10;99.90
10451;DHT22;5273;51.290;6.918;2023-09-18T03:50:15;21.10;99.90
10451;DHT22;5273;51.290;6.918;2023-09-18T03:52:42;21.00;99.90
10451;DHT22;5273;51.290;6.918;2023-09-18T03:55:09;21.10;99.90
10451;DHT22;5273;51.290;6.918;2023-09-18T03:57:39;21.10;99.90
10451;DHT22;5273;51.290;6.918;2023-09-18T04:00:06;21.10;99.90
10451;DHT22;5273;51.290;6.918;2023-09-18T04:02:33;21.20;99.90
10451;DHT22;5273;51.290;6.918;2023-09-18T04:05:01;21.20;99.90
10451;DHT22;5273;51.290;6.918;2023-09-18T04:07:28;21.20;99.90
10451;DHT22;5273;51.290;6.918;2023-09-18T04:09:55;21.10;99.90
10451;DHT22;5273;51.290;6.918;2023-09-18T04:12:22;21.10;99.90
10451;DHT22;5273;51.290;6.918;2023-09-18T04:14:50;20.90;99.90
10451;DHT22;5273;51.290;6.918;2023-09-18T04:17:17;21.10;99.90
10451;DHT22;5273;51.290;6.918;2023-09-18T04:19:46;21.00;99.90
10451;DHT22;5273;51.290;6.918;2023-09-18T04:22:13;21.00;99.90
10451;DHT22;5273;51.290;6.918;2023-09-18T04:24:40;21.00;99.90
10451;DHT22;5273;51.290;6.918;2023-09-18T04:27:07;20.90;99.90
10451;DHT22;5273;51.290;6.918;2023-09-18T04:29:34;20.90;99.90
10451;DHT22;5273;51.290;6.918;2023-09-18T04:32:03;20.90;99.90
10451;DHT22;5273;51.290;6.918;2023-09-18T04:34:31;20.90;99.90
10451;DHT22;5273;51.290;6.918;2023-09-18T04:36:58;20.80;99.90
10451;DHT22;5273;51.290;6.918;2023-09-18T04:39:24;20.80;99.90
10451;DHT22;5273;51.290;6.918;2023-09-18T04:41:51;20.80;99.90
10451;DHT22;5273;51.290;6.918;2023-09-18T04:44:18;21.00;99.90
10451;DHT22;5273;51.290;6.918;2023-09-18T04:46:45;20.70;99.90
10451;DHT22;5273;51.290;6.918;2023-09-18T04:49:14;20.70;99.90
10451;DHT22;5273;51.290;6.918;2023-09-18T04:51:41;20.60;99.90
10451;DHT22;5273;51.290;6.918;2023-09-18T04:54:08;20.60;99.90
10451;DHT22;5273;51.290;6.918;2023-09-18T04:56:34;20.60;99.90
10451;DHT22;5273;51.290;6.918;2023-09-18T04:59:01;20.60;99.90
10451;DHT22;5273;51.290;6.918;2023-09-18T05:01:29;20.50;99.90
10451;DHT22;5273;51.290;6.918;2023-09-18T05:03:56;20.50;99.90
10451;DHT22;5273;51.290;6.918;2023-09-18T05:06:24;20.50;99.90
10451;DHT22;5273;51.290;6.918;2023-09-18T05:08:51;20.60;99.90
10451;DHT22;5273;51.290;6.918;2023-09-18T05:11:18;20.50;99.90
10451;DHT22;5273;51.290;6.918;2023-09-18T05:13:46;20.60;99.90
10451;DHT22;5273;51.290;6.918;2023-09-18T05:16:12;20.60;99.90
10451;DHT22;5273;51.290;6.918;2023-09-18T05:18:39;20.60;99.90
10451;DHT22;5273;51.290;6.918;2023-09-18T05:21:07;20.60;99.90
10451;DHT22;5273;51.290;6.918;2023-09-18T05:23:36;20.60;99.90
10451;DHT22;5273;51.290;6.918;2023-09-18T05:26:03;20.60;99.90
10451;DHT22;5273;51.290;6.918;2023-09-18T05:28:30;20.70;99.90
10451;DHT22;5273;51.290;6.918;2023-09-18T05:30:57;20.60;99.90
10451;DHT22;5273;51.290;6.918;2023-09-18T05:33:24;20.60;99.90
10451;DHT22;5273;51.290;6.918;2023-09-18T05:35:51;20.60;99.90
10451;DHT22;5273;51.290;6.918;2023-09-18T05:38:18;20.50;99.90
10451;DHT22;5273;51.290;6.918;2023-09-18T05:40:46;20.50;99.90
10451;DHT22;5273;51.290;6.918;2023-09-18T05:43:14;20.50;99.90
10451;DHT22;5273;51.290;6.918;2023-09-18T05:45:41;20.50;99.90
10451;DHT22;5273;51.290;6.918;2023-09-18T05:48:08;20.50;99.90
10451;DHT22;5273;51.290;6.918;2023-09-18T05:50:35;20.40;99.90
10451;DHT22;5273;51.290;6.918;2023-09-18T05:53:03;20.50;99.90
10451;DHT22;5273;51.290;6.918;2023-09-18T05:55:30;20.40;99.90
10451;DHT22;5273;51.290;6.918;2023-09-18T05:57:59;20.40;99.90
10451;DHT22;5273;51.290;6.918;2023-09-18T06:00:26;20.40;99.90
10451;DHT22;5273;51.290;6.918;2023-09-18T06:02:53;20.40;99.90
10451;DHT22;5273;51.290;6.918;2023-09-18T06:05:20;20.40;99.90
10451;DHT22;5273;51.290;6.918;2023-09-18T06:07:48;20.30;99.90
10451;DHT22;5273;51.290;6.918;2023-09-18T06:10:15;20.40;99.90
10451;DHT22;5273;51.290;6.918;2023-09-18T06:12:43;20.30;99.90
10451;DHT22;5273;51.290;6.918;2023-09-18T06:15:12;20.40;99.90
10451;DHT22;5273;51.290;6.918;2023-09-18T06:17:40;20.40;99.90
10451;DHT22;5273;51.290;6.918;2023-09-18T06:20:08;20.30;99.90
10451;DHT22;5273;51.290;6.918;2023-09-18T06:22:36;20.30;99.90
10451;DHT22;5273;51.290;6.918;2023-09-18T06:25:04;20.30;99.90
10451;DHT22;5273;51.290;6.918;2023-09-18T06:27:34;20.40;99.90
10451;DHT22;5273;51.290;6.918;2023-09-18T06:30:02;20.40;99.90
10451;DHT22;5273;51.290;6.918;2023-09-18T06:32:30;20.40;99.90
10451;DHT22;5273;51.290;6.918;2023-09-18T06:34:57;20.30;99.90
10451;DHT22;5273;51.290;6.918;2023-09-18T06:37:24;20.30;99.90
10451;DHT22;5273;51.290;6.918;2023-09-18T06:39:51;20.30;99.90
10451;DHT22;5273;51.290;6.918;2023-09-18T06:42:18;20.30;99.90
10451;DHT22;5273;51.290;6.918;2023-09-18T06:44:44;20.30;99.90
10451;DHT22;5273;51.290;6.918;2023-09-18T06:47:12;20.30;99.90
10451;DHT22;5273;51.290;6.918;2023-09-18T06:49:41;20.40;99.90
10451;DHT22;5273;51.290;6.918;2023-09-18T06:52:08;20.40;99.90
10451;DHT22;5273;51.290;6.918;2023-09-18T06:54:35;20.40;99.90
10451;DHT22;5273;51.290;6.918;2023-09-18T06:57:02;20.50;99.90
10451;DHT22;5273;51.290;6.918;2023-09-18T06:59:29;20.50;99.90
10451;DHT22;5273;51.290;6.918;2023-09-18T07:01:57;20.50;99.90
10451;DHT22;5273;51.290;6.918;2023-09-18T07:04:24;20.70;99.90
10451;DHT22;5273;51.290;6.918;2023-09-18T07:06:52;20.80;99.90
10451;DHT22;5273;51.290;6.918;2023-09-18T07:09:20;20.90;99.90
10451;DHT22;5273;51.290;6.918;2023-09-18T07:11:48;21.00;99.90
10451;DHT22;5273;51.290;6.918;2023-09-18T07:14:16;21.00;99.90
10451;DHT22;5273;51.290;6.918;2023-09-18T07:16:43;21.20;99.90
10451;DHT22;5273;51.290;6.918;2023-09-18T07:19:09;21.30;99.90
10451;DHT22;5273;51.290;6.918;2023-09-18T07:21:37;21.40;99.90
10451;DHT22;5273;51.290;6.918;2023-09-18T07:24:08;21.70;99.90
10451;DHT22;5273;51.290;6.918;2023-09-18T07:26:35;21.60;99.90
10451;DHT22;5273;51.290;6.918;2023-09-18T07:29:02;21.60;99.90
10451;DHT22;5273;51.290;6.918;2023-09-18T07:31:29;21.50;99.90
10451;DHT22;5273;51.290;6.918;2023-09-18T07:33:56;21.50;99.90
10451;DHT22;5273;51.290;6.918;2023-09-18T07:36:23;21.30;99.90
10451;DHT22;5273;51.290;6.918;2023-09-18T07:38:50;21.30;99.90
10451;DHT22;5273;51.290;6.918;2023-09-18T07:41:18;21.50;99.90
10451;DHT22;5273;51.290;6.918;2023-09-18T07:43:46;21.30;99.90
10451;DHT22;5273;51.290;6.918;2023-09-18T07:46:13;21.30;99.90
10451;DHT22;5273;51.290;6.918;2023-09-18T07:48:40;21.30;99.90
10451;DHT22;5273;51.290;6.918;2023-09-18T07:51:10;21.30;99.90
10451;DHT22;5273;51.290;6.918;2023-09-18T07:53:37;21.30;99.90
10451;DHT22;5273;51.290;6.918;2023-09-18T07:56:05;21.30;99.90
10451;DHT22;5273;51.290;6.918;2023-09-18T07:58:33;21.40;99.90
10451;DHT22;5273;51.290;6.918;2023-09-18T08:01:04;21.50;99.90
10451;DHT22;5273;51.290;6.918;2023-09-18T08:03:30;21.50;99.90
10451;DHT22;5273;51.290;6.918;2023-09-18T08:05:57;21.60;99.90
10451;DHT22;5273;51.290;6.918;2023-09-18T08:08:24;21.50;99.90
10451;DHT22;5273;51.290;6.918;2023-09-18T08:10:51;21.50;99.90
10451;DHT22;5273;51.290;6.918;2023-09-18T08:13:19;21.70;99.90
10451;DHT22;5273;51.290;6.918;2023-09-18T08:15:48;21.70;99.90
10451;DHT22;5273;51.290;6.918;2023-09-18T08:18:16;21.70;99.90
10451;DHT22;5273;51.290;6.918;2023-09-18T08:20:43;21.70;99.90
10451;DHT22;5273;51.290;6.918;2023-09-18T08:23:10;21.70;99.90
10451;DHT22;5273;51.290;6.918;2023-09-18T08:25:38;21.80;99.90
10451;DHT22;5273;51.290;6.918;2023-09-18T08:28:05;21.80;99.90
10451;DHT22;5273;51.290;6.918;2023-09-18T08:30:32;21.80;99.90
10451;DHT22;5273;51.290;6.918;2023-09-18T08:33:00;21.90;99.90
10451;DHT22;5273;51.290;6.918;2023-09-18T08:35:27;22.10;99.90
10451;DHT22;5273;51.290;6.918;2023-09-18T08:37:55;22.50;99.90
10451;DHT22;5273;51.290;6.918;2023-09-18T08:40:22;22.70;99.90
10451;DHT22;5273;51.290;6.918;2023-09-18T08:42:52;22.70;99.90
10451;DHT22;5273;51.290;6.918;2023-09-18T08:45:24;22.70;99.90
10451;DHT22;5273;51.290;6.918;2023-09-18T08:47:52;22.60;99.90
10451;DHT22;5273;51.290;6.918;2023-09-18T08:50:22;22.60;99.90
10451;DHT22;5273;51.290;6.918;2023-09-18T08:52:50;22.60;99.90
10451;DHT22;5273;51.290;6.918;2023-09-18T08:55:18;22.50;99.90
10451;DHT22;5273;51.290;6.918;2023-09-18T08:57:46;22.50;99.90
10451;DHT22;5273;51.290;6.918;2023-09-18T09:00:13;22.60;99.90
10451;DHT22;5273;51.290;6.918;2023-09-18T09:02:42;22.70;99.90
10451;DHT22;5273;51.290;6.918;2023-09-18T09:05:09;22.70;99.90
10451;DHT22;5273;51.290;6.918;2023-09-18T09:07:38;22.80;99.90
10451;DHT22;5273;51.290;6.918;2023-09-18T09:10:05;22.80;99.90
10451;DHT22;5273;51.290;6.918;2023-09-18T09:12:53;22.90;99.90
10451;DHT22;5273;51.290;6.918;2023-09-18T09:15:21;23.30;99.90
10451;DHT22;5273;51.290;6.918;2023-09-18T09:17:49;23.80;99.90
10451;DHT22;5273;51.290;6.918;2023-09-18T09:20:16;24.30;99.40
10451;DHT22;5273;51.290;6.918;2023-09-18T09:22:46;24.70;98.60
10451;DHT22;5273;51.290;6.918;2023-09-18T09:25:23;24.70;97.80
10451;DHT22;5273;51.290;6.918;2023-09-18T09:27:51;24.70;97.70
10451;DHT22;5273;51.290;6.918;2023-09-18T09:30:19;24.60;97.20
10451;DHT22;5273;51.290;6.918;2023-09-18T09:32:48;24.40;97.70
10451;DHT22;5273;51.290;6.918;2023-09-18T09:35:23;24.30;96.80
10451;DHT22;5273;51.290;6.918;2023-09-18T09:37:54;24.20;97.90
10451;DHT22;5273;51.290;6.918;2023-09-18T09:40:23;24.20;98.00
10451;DHT22;5273;51.290;6.918;2023-09-18T09:42:54;24.20;96.60
10451;DHT22;5273;51.290;6.918;2023-09-18T09:45:27;23.90;97.30
10451;DHT22;5273;51.290;6.918;2023-09-18T09:47:56;23.80;97.30
10451;DHT22;5273;51.290;6.918;2023-09-18T09:50:23;23.80;97.80
10451;DHT22;5273;51.290;6.918;2023-09-18T09:52:54;23.90;97.50
10451;DHT22;5273;51.290;6.918;2023-09-18T09:55:23;24.00;97.60
10451;DHT22;5273;51.290;6.918;2023-09-18T09:57:53;24.10;97.60
10451;DHT22;5273;51.290;6.918;2023-09-18T10:00:23;24.20;97.40
10451;DHT22;5273;51.290;6.918;2023-09-18T10:03:00;24.20;97.20
10451;DHT22;5273;51.290;6.918;2023-09-18T10:05:31;24.50;96.20
10451;DHT22;5273;51.290;6.918;2023-09-18T10:08:02;24.70;96.50
10451;DHT22;5273;51.290;6.918;2023-09-18T10:10:33;25.30;95.30
10451;DHT22;5273;51.290;6.918;2023-09-18T10:13:05;25.60;94.30
10451;DHT22;5273;51.290;6.918;2023-09-18T10:15:34;25.60;94.20
10451;DHT22;5273;51.290;6.918;2023-09-18T10:18:15;25.70;94.40
10451;DHT22;5273;51.290;6.918;2023-09-18T10:20:44;26.10;94.60
10451;DHT22;5273;51.290;6.918;2023-09-18T10:23:32;26.70;93.10
10451;DHT22;5273;51.290;6.918;2023-09-18T10:26:01;27.10;91.90
10451;DHT22;5273;51.290;6.918;2023-09-18T10:28:31;27.50;91.80
10451;DHT22;5273;51.290;6.918;2023-09-18T10:31:00;28.00;91.80
10451;DHT22;5273;51.290;6.918;2023-09-18T10:33:30;28.40;91.50
10451;DHT22;5273;51.290;6.918;2023-09-18T10:35:57;28.70;90.30
10451;DHT22;5273;51.290;6.918;2023-09-18T10:38:28;28.90;89.70
10451;DHT22;5273;51.290;6.918;2023-09-18T10:40:56;28.90;85.80
10451;DHT22;5273;51.290;6.918;2023-09-18T10:43:24;28.70;87.20
10451;DHT22;5273;51.290;6.918;2023-09-18T10:45:51;28.80;88.10
10451;DHT22;5273;51.290;6.918;2023-09-18T10:48:19;28.70;87.00
10451;DHT22;5273;51.290;6.918;2023-09-18T10:50:46;28.60;85.60
10451;DHT22;5273;51.290;6.918;2023-09-18T10:53:13;28.20;87.60
10451;DHT22;5273;51.290;6.918;2023-09-18T10:55:44;28.30;87.20
10451;DHT22;5273;51.290;6.918;2023-09-18T10:58:11;28.10;85.90
10451;DHT22;5273;51.290;6.918;2023-09-18T11:00:41;28.00;87.30
10451;DHT22;5273;51.290;6.918;2023-09-18T11:03:14;28.10;87.40
10451;DHT22;5273;51.290;6.918;2023-09-18T11:05:44;28.00;86.70
10451;DHT22;5273;51.290;6.918;2023-09-18T11:08:31;27.80;86.80
10451;DHT22;5273;51.290;6.918;2023-09-18T11:11:03;27.70;89.40
10451;DHT22;5273;51.290;6.918;2023-09-18T11:13:40;27.60;86.90
10451;DHT22;5273;51.290;6.918;2023-09-18T11:16:18;27.40;85.70
10451;DHT22;5273;51.290;6.918;2023-09-18T11:18:51;27.20;87.40
10451;DHT22;5273;51.290;6.918;2023-09-18T11:21:23;27.30;86.50
10451;DHT22;5273;51.290;6.918;2023-09-18T11:23:58;27.00;86.30
10451;DHT22;5273;51.290;6.918;2023-09-18T11:26:30;26.90;85.90
10451;DHT22;5273;51.290;6.918;2023-09-18T11:28:59;26.80;87.50
10451;DHT22;5273;51.290;6.918;2023-09-18T11:31:43;26.90;86.90
10451;DHT22;5273;51.290;6.918;2023-09-18T11:34:12;26.90;86.50
10451;DHT22;5273;51.290;6.918;2023-09-18T11:36:39;26.80;86.80
10451;DHT22;5273;51.290;6.918;2023-09-18T11:39:06;26.60;86.80
10451;DHT22;5273;51.290;6.918;2023-09-18T11:41:36;26.40;88.30
10451;DHT22;5273;51.290;6.918;2023-09-18T11:44:32;26.40;88.20
10451;DHT22;5273;51.290;6.918;2023-09-18T11:47:00;26.60;88.20
10451;DHT22;5273;51.290;6.918;2023-09-18T11:49:30;26.80;87.40
10451;DHT22;5273;51.290;6.918;2023-09-18T11:51:58;26.90;86.50
10451;DHT22;5273;51.290;6.918;2023-09-18T11:54:27;26.80;84.80
10451;DHT22;5273;51.290;6.918;2023-09-18T11:56:56;26.70;86.10
10451;DHT22;5273;51.290;6.918;2023-09-18T11:59:34;26.70;85.00
10451;DHT22;5273;51.290;6.918;2023-09-18T12:02:01;26.50;84.90
10451;DHT22;5273;51.290;6.918;2023-09-18T12:04:31;26.60;86.00
10451;DHT22;5273;51.290;6.918;2023-09-18T12:06:58;26.60;87.20
10451;DHT22;5273;51.290;6.918;2023-09-18T12:09:26;26.60;86.50
10451;DHT22;5273;51.290;6.918;2023-09-18T12:11:55;26.70;85.60
10451;DHT22;5273;51.290;6.918;2023-09-18T12:14:23;26.90;86.40
10451;DHT22;5273;51.290;6.918;2023-09-18T12:16:50;27.00;83.80
10451;DHT22;5273;51.290;6.918;2023-09-18T12:19:17;27.20;81.30
10451;DHT22;5273;51.290;6.918;2023-09-18T12:21:46;27.10;79.50
10451;DHT22;5273;51.290;6.918;2023-09-18T12:24:14;27.10;78.50
10451;DHT22;5273;51.290;6.918;2023-09-18T12:26:41;27.00;79.20
10451;DHT22;5273;51.290;6.918;2023-09-18T12:29:10;27.10;81.70
10451;DHT22;5273;51.290;6.918;2023-09-18T12:31:37;26.90;81.20
10451;DHT22;5273;51.290;6.918;2023-09-18T12:34:04;26.80;81.50
10451;DHT22;5273;51.290;6.918;2023-09-18T12:36:33;26.80;81.20
10451;DHT22;5273;51.290;6.918;2023-09-18T12:39:01;26.80;80.90
10451;DHT22;5273;51.290;6.918;2023-09-18T12:41:28;26.90;79.80
10451;DHT22;5273;51.290;6.918;2023-09-18T12:43:56;27.00;80.70
10451;DHT22;5273;51.290;6.918;2023-09-18T12:46:24;26.90;80.00
10451;DHT22;5273;51.290;6.918;2023-09-18T12:48:51;26.90;80.90
10451;DHT22;5273;51.290;6.918;2023-09-18T12:51:18;27.00;81.90
10451;DHT22;5273;51.290;6.918;2023-09-18T12:53:59;27.00;82.30
10451;DHT22;5273;51.290;6.918;2023-09-18T12:56:26;27.10;80.10
10451;DHT22;5273;51.290;6.918;2023-09-18T12:58:57;27.00;79.90
10451;DHT22;5273;51.290;6.918;2023-09-18T13:01:25;26.90;79.00
10451;DHT22;5273;51.290;6.918;2023-09-18T13:03:54;26.80;80.00
10451;DHT22;5273;51.290;6.918;2023-09-18T13:06:21;26.80;80.90
10451;DHT22;5273;51.290;6.918;2023-09-18T13:08:49;26.80;80.20
10451;DHT22;5273;51.290;6.918;2023-09-18T13:11:18;26.80;78.60
10451;DHT22;5273;51.290;6.918;2023-09-18T13:13:45;26.60;78.60
10451;DHT22;5273;51.290;6.918;2023-09-18T13:16:12;26.50;80.00
10451;DHT22;5273;51.290;6.918;2023-09-18T13:18:40;26.60;79.40
10451;DHT22;5273;51.290;6.918;2023-09-18T13:21:10;26.60;77.00
10451;DHT22;5273;51.290;6.918;2023-09-18T13:23:38;26.70;76.30
10451;DHT22;5273;51.290;6.918;2023-09-18T13:26:07;26.70;77.20
10451;DHT22;5273;51.290;6.918;2023-09-18T13:28:34;26.70;76.70
10451;DHT22;5273;51.290;6.918;2023-09-18T13:31:01;26.70;77.50
10451;DHT22;5273;51.290;6.918;2023-09-18T13:33:31;26.70;78.30
10451;DHT22;5273;51.290;6.918;2023-09-18T13:36:00;26.70;77.90
10451;DHT22;5273;51.290;6.918;2023-09-18T13:38:27;26.60;78.20
10451;DHT22;5273;51.290;6.918;2023-09-18T13:40:53;26.60;79.00
10451;DHT22;5273;51.290;6.918;2023-09-18T13:43:21;26.60;80.90
10451;DHT22;5273;51.290;6.918;2023-09-18T13:45:49;26.70;78.80
10451;DHT22;5273;51.290;6.918;2023-09-18T13:48:17;26.70;76.30
10451;DHT22;5273;51.290;6.918;2023-09-18T13:50:44;26.60;73.30
10451;DHT22;5273;51.290;6.918;2023-09-18T13:53:13;26.50;74.30
10451;DHT22;5273;51.290;6.918;2023-09-18T13:55:40;26.50;75.50
10451;DHT22;5273;51.290;6.918;2023-09-18T13:58:07;26.40;76.80
10451;DHT22;5273;51.290;6.918;2023-09-18T14:00:35;26.60;78.20
10451;DHT22;5273;51.290;6.918;2023-09-18T14:03:02;26.50;77.00
10451;DHT22;5273;51.290;6.918;2023-09-18T14:05:29;26.40;75.90
10451;DHT22;5273;51.290;6.918;2023-09-18T14:07:56;26.30;74.70
10451;DHT22;5273;51.290;6.918;2023-09-18T14:10:27;26.30;76.00
10451;DHT22;5273;51.290;6.918;2023-09-18T14:12:54;26.30;75.60
10451;DHT22;5273;51.290;6.918;2023-09-18T14:15:21;26.30;75.90
10451;DHT22;5273;51.290;6.918;2023-09-18T14:17:48;26.10;75.30
10451;DHT22;5273;51.290;6.918;2023-09-18T14:20:15;26.10;75.40
10451;DHT22;5273;51.290;6.918;2023-09-18T14:22:44;26.00;74.40
10451;DHT22;5273;51.290;6.918;2023-09-18T14:25:11;25.90;75.00
10451;DHT22;5273;51.290;6.918;2023-09-18T14:27:40;25.80;74.60
10451;DHT22;5273;51.290;6.918;2023-09-18T14:30:07;25.80;75.60
10451;DHT22;5273;51.290;6.918;2023-09-18T14:32:35;25.80;74.20
10451;DHT22;5273;51.290;6.918;2023-09-18T14:35:02;25.80;75.80
10451;DHT22;5273;51.290;6.918;2023-09-18T14:37:30;25.70;75.50
10451;DHT22;5273;51.290;6.918;2023-09-18T14:39:57;25.80;75.70
10451;DHT22;5273;51.290;6.918;2023-09-18T14:42:24;25.80;75.20
10451;DHT22;5273;51.290;6.918;2023-09-18T14:44:52;25.80;76.10
10451;DHT22;5273;51.290;6.918;2023-09-18T14:47:19;26.00;76.40
10451;DHT22;5273;51.290;6.918;2023-09-18T14:49:46;25.80;74.20
10451;DHT22;5273;51.290;6.918;2023-09-18T14:52:14;25.80;73.00
10451;DHT22;5273;51.290;6.918;2023-09-18T14:54:41;25.60;74.40
10451;DHT22;5273;51.290;6.918;2023-09-18T14:57:08;25.60;74.00
10451;DHT22;5273;51.290;6.918;2023-09-18T14:59:35;25.70;74.90
10451;DHT22;5273;51.290;6.918;2023-09-18T15:02:05;25.50;75.20
10451;DHT22;5273;51.290;6.918;2023-09-18T15:04:32;25.60;74.70
10451;DHT22;5273;51.290;6.918;2023-09-18T15:06:59;25.60;75.10
10451;DHT22;5273;51.290;6.918;2023-09-18T15:09:26;25.50;74.20
10451;DHT22;5273;51.290;6.918;2023-09-18T15:11:53;25.50;76.00
10451;DHT22;5273;51.290;6.918;2023-09-18T15:14:20;25.40;74.70
10451;DHT22;5273;51.290;6.918;2023-09-18T15:16:47;25.50;75.40
10451;DHT22;5273;51.290;6.918;2023-09-18T15:19:15;25.40;74.30
10451;DHT22;5273;51.290;6.918;2023-09-18T15:21:43;25.40;75.10
10451;DHT22;5273;51.290;6.918;2023-09-18T15:24:10;25.40;75.30
10451;DHT22;5273;51.290;6.918;2023-09-18T15:26:36;25.30;75.60
10451;DHT22;5273;51.290;6.918;2023-09-18T15:29:03;25.40;74.20
10451;DHT22;5273;51.290;6.918;2023-09-18T15:31:30;25.30;73.20
10451;DHT22;5273;51.290;6.918;2023-09-18T15:33:57;25.10;72.60
10451;DHT22;5273;51.290;6.918;2023-09-18T15:36:25;25.20;73.40
10451;DHT22;5273;51.290;6.918;2023-09-18T15:38:52;25.20;73.80
10451;DHT22;5273;51.290;6.918;2023-09-18T15:41:20;25.00;73.60
10451;DHT22;5273;51.290;6.918;2023-09-18T15:43:47;25.10;74.50
10451;DHT22;5273;51.290;6.918;2023-09-18T15:46:14;25.10;73.70
10451;DHT22;5273;51.290;6.918;2023-09-18T15:48:43;25.00;73.70
10451;DHT22;5273;51.290;6.918;2023-09-18T15:51:10;24.90;74.10